Map

Track Data

SID SEASON NUMBER BASIN SUBBASIN NAME ISO_TIME NATURE LAT LON WMO_WIND WMO_PRES WMO_AGENCY TRACK_TYPE DIST2LAND LANDFALL IFLAG USA_AGENCY USA_ATCF_ID USA_LAT USA_LON USA_RECORD USA_STATUS USA_WIND USA_PRES USA_SSHS USA_R34_NE USA_R34_SE USA_R34_SW USA_R34_NW USA_R50_NE USA_R50_SE USA_R50_SW USA_R50_NW USA_R64_NE USA_R64_SE USA_R64_SW USA_R64_NW USA_POCI USA_ROCI USA_RMW USA_EYE TOKYO_LAT TOKYO_LON TOKYO_GRADE TOKYO_WIND TOKYO_PRES TOKYO_R50_DIR TOKYO_R50_LONG TOKYO_R50_SHORT TOKYO_R30_DIR TOKYO_R30_LONG TOKYO_R30_SHORT TOKYO_LAND CMA_LAT CMA_LON CMA_CAT CMA_WIND CMA_PRES HKO_LAT HKO_LON HKO_CAT HKO_WIND HKO_PRES NEWDELHI_LAT NEWDELHI_LON NEWDELHI_GRADE NEWDELHI_WIND NEWDELHI_PRES NEWDELHI_CI NEWDELHI_DP NEWDELHI_POCI REUNION_LAT REUNION_LON REUNION_TYPE REUNION_WIND REUNION_PRES REUNION_TNUM REUNION_CI REUNION_RMW REUNION_R34_NE REUNION_R34_SE REUNION_R34_SW REUNION_R34_NW REUNION_R50_NE REUNION_R50_SE REUNION_R50_SW REUNION_R50_NW REUNION_R64_NE REUNION_R64_SE REUNION_R64_SW REUNION_R64_NW BOM_LAT BOM_LON BOM_TYPE BOM_WIND BOM_PRES BOM_TNUM BOM_CI BOM_RMW BOM_R34_NE BOM_R34_SE BOM_R34_SW BOM_R34_NW BOM_R50_NE BOM_R50_SE BOM_R50_SW BOM_R50_NW BOM_R64_NE BOM_R64_SE BOM_R64_SW BOM_R64_NW BOM_ROCI BOM_POCI BOM_EYE BOM_POS_METHOD BOM_PRES_METHOD NADI_LAT NADI_LON NADI_CAT NADI_WIND NADI_PRES WELLINGTON_LAT WELLINGTON_LON WELLINGTON_WIND WELLINGTON_PRES DS824_LAT DS824_LON DS824_STAGE DS824_WIND DS824_PRES TD9636_LAT TD9636_LON TD9636_STAGE TD9636_WIND TD9636_PRES TD9635_LAT TD9635_LON TD9635_WIND TD9635_PRES TD9635_ROCI NEUMANN_LAT NEUMANN_LON NEUMANN_CLASS NEUMANN_WIND NEUMANN_PRES MLC_LAT MLC_LON MLC_CLASS MLC_WIND MLC_PRES USA_GUST BOM_GUST BOM_GUST_PER REUNION_GUST REUNION_GUST_PER USA_SEAHGT USA_SEARAD_NE USA_SEARAD_SE USA_SEARAD_SW USA_SEARAD_NW STORM_SPEED STORM_DIR
1923222N22091 1923 49 NI BB NOT_NAMED 1923-08-10 00:00:00 TS 21.6000 90.6000 main 44 38 _________O____ -1 21.6000 90.6000 TC 30 1 270
1923222N22091 1923 49 NI BB NOT_NAMED 1923-08-10 03:00:00 TS 21.6000 90.5217 main 38 24 _________PO___ -1 21.5999 90.4825 TC 30 21.6000 90.6000 1 3 270
1923222N22091 1923 49 NI BB NOT_NAMED 1923-08-10 06:00:00 TS 21.6007 90.3300 main 24 22 _________OP___ -1 21.6000 90.3000 TC 30 21.6019 90.3750 1 4 270
1923222N22091 1923 49 NI BB NOT_NAMED 1923-08-10 09:00:00 TS 21.6013 90.0729 main 22 22 _________PP___ -1 21.6001 90.0150 TC 30 21.6028 90.1501 1 5 270
1923222N22091 1923 49 NI BB NOT_NAMED 1923-08-10 12:00:00 TS 21.6012 89.8125 main 22 22 _________OP___ -1 21.6000 89.7000 TC 30 21.6024 89.9250 1 5 270
1923222N22091 1923 49 NI BB NOT_NAMED 1923-08-10 15:00:00 TS 21.6000 89.5712 main 23 11 _________PO___ -1 21.5999 89.4425 TC 30 21.6000 89.7000 1 4 270
1923222N22091 1923 49 NI BB NOT_NAMED 1923-08-10 18:00:00 TS 21.5978 89.3367 main 15 0 _________OP___ -1 21.6000 89.2000 TC 30 21.5957 89.4734 1 4 269
1923222N22091 1923 49 NI BB NOT_NAMED 1923-08-10 21:00:00 TS 21.5960 89.1012 main 0 0 _________PP___ -1 21.5999 88.9650 TC 30 21.5921 89.2374 1 5 270
1923222N22091 1923 49 NI BB NOT_NAMED 1923-08-11 00:00:00 TS 21.5962 88.8414 main 10 10 _________OP___ -1 21.6000 88.7000 TC 30 21.5925 88.9827 1 5 270
1923222N22091 1923 49 NI BB NOT_NAMED 1923-08-11 03:00:00 TS 21.5963 88.5325 main 0 0 _________PO___ -1 21.5925 88.3649 TC 30 21.6000 88.7000 1 6 271
1923222N22091 1923 49 NI BB NOT_NAMED 1923-08-11 06:00:00 TS 21.6049 88.1893 main 0 0 _________OP___ -1 21.6000 88.0000 TC 30 21.6097 88.3787 1 6 273
1923222N22091 1923 49 NI BB NOT_NAMED 1923-08-11 09:00:00 TS 21.6350 87.8399 main 11 0 _________PP___ -1 21.6424 87.6500 TC 30 21.6275 88.0298 1 7 276
1923222N22091 1923 49 NI BB NOT_NAMED 1923-08-11 12:00:00 TS 21.6783 87.4830 main 0 0 _________OP___ -1 21.7000 87.3000 TC 30 21.6566 87.6661 1 7 277
1923222N22091 1923 49 NI BB NOT_NAMED 1923-08-11 15:00:00 TS 21.7212 87.1250 main 0 0 _________PO___ -1 21.7424 86.9499 TC 30 21.7000 87.3000 1 6 278
1923222N22091 1923 49 NI BB NOT_NAMED 1923-08-11 18:00:00 TS 21.7717 86.7950 main 0 0 _________OP___ -1 21.8000 86.6000 TC 30 21.7434 86.9901 1 6 282
1923222N22091 1923 49 NI BB NOT_NAMED 1923-08-11 21:00:00 TS 21.8441 86.4807 main 0 0 _________PP___ -1 21.8846 86.2873 TC 30 21.8035 86.6741 1 7 285
1923222N22091 1923 49 NI BB NOT_NAMED 1923-08-12 00:00:00 TS 21.9435 86.1105 main 0 0 _________OP___ -1 22.0000 85.9000 TC 30 21.8869 86.3211 1 8 286
1923222N22091 1923 49 NI BB NOT_NAMED 1923-08-12 03:00:00 TS 22.0676 85.6187 main 0 0 _________PO___ -1 22.1351 85.3374 TC 30 22.0000 85.9000 1 10 286
1923222N22091 1923 49 NI BB NOT_NAMED 1923-08-12 06:00:00 TS 22.2237 85.0200 main 0 0 _________OP___ -1 22.3000 84.7000 TC 30 22.1474 85.3401 1 12 287
1923222N22091 1923 49 NI BB NOT_NAMED 1923-08-12 09:00:00 TS 22.4109 84.3930 main 0 0 _________PP___ -1 22.5001 84.0701 TC 30 22.3217 84.7159 1 12 289
1923222N22091 1923 49 NI BB NOT_NAMED 1923-08-12 12:00:00 TS 22.6050 83.7919 main 0 0 _________OP___ -1 22.7000 83.5000 TC 30 22.5099 84.0837 1 11 290
1923222N22091 1923 49 NI BB NOT_NAMED 1923-08-12 15:00:00 TS 22.7748 83.2848 main 0 0 _________PO___ -1 22.8496 83.0697 TC 30 22.7000 83.5000 1 9 291
1923222N22091 1923 49 NI BB NOT_NAMED 1923-08-12 18:00:00 TS 22.9331 82.8759 main 0 0 _________OP___ -1 23.0000 82.7000 TC 30 22.8829 83.0079 1 8 294
1923222N22091 1923 49 NI BB NOT_NAMED 1923-08-12 21:00:00 TS 23.1106 82.4811 main 0 0 _________PP___ -1 23.1878 82.3104 TC 30 23.0590 82.5949 1 8 297
1923222N22091 1923 49 NI BB NOT_NAMED 1923-08-13 00:00:00 TS 23.2872 82.1230 main 0 0 _________OP___ -1 23.4000 81.9000 TC 30 23.2307 82.2345 1 6 298
1923222N22091 1923 49 NI BB NOT_NAMED 1923-08-13 03:00:00 NR 23.4000 81.9000 main 0 __________O___ -1 TC 23.4000 81.9000 1 5 299

About IBTrACS Database

This database is a web-friendly format of International Best Track Archive for Climate Stewardship (IBTrACS), a global best track data archive curated by NOAA dating back to 1842.

Updated: 2021-11-26